Time;durP1;ratioP1;P1;durP2;ratioP2;P2;SDS_P1;SDS_P2;PMS_P1;PMS_P2;Temp;Humidity;BMP_temperature;BMP_pressure;BME280_temperature;BME280_humidity;BME280_pressure;Samples;Min_cycle;Max_cycle;Signal;HPM_P1;HPM_P2
2023/01/17 00:01:05;;;;;;;3.67;0.90;;;;;;;4.45;63.26;96319.25;5241319;28;20040;-72
2023/01/17 00:10:24;;;;;;;2.67;0.95;;;;;;;4.54;61.72;96339.22;5243053;28;20082;-73
2023/01/17 00:13:14;;;;;;;2.90;0.88;;;;;;;4.56;61.45;96345.09;5242077;28;20041;-73
2023/01/17 00:16:05;;;;;;;2.00;1.05;;;;;;;4.59;61.56;96360.50;5240682;28;20095;-72
2023/01/17 01:36:00;;;;;;;2.70;1.30;;;;;;;4.79;59.13;96451.97;5239563;28;20048;-72
2023/01/17 01:38:50;;;;;;;4.97;1.40;;;;;;;4.87;59.23;96447.50;5238176;28;20048;-73
2023/01/17 01:41:40;;;;;;;4.47;1.55;;;;;;;4.91;58.17;96453.22;5242158;28;20133;-72
2023/01/17 01:44:44;;;;;;;2.08;1.33;;;;;;;4.88;59.11;96453.56;5238450;28;20114;-74
2023/01/17 01:47:39;;;;;;;2.25;1.48;;;;;;;4.70;59.48;96448.53;5240664;28;20063;-74
2023/01/17 01:50:33;;;;;;;4.03;1.83;;;;;;;4.71;58.86;96452.81;5240819;28;20098;-75
2023/01/17 01:53:23;;;;;;;6.57;1.20;;;;;;;4.60;58.85;96455.78;5231952;28;20054;-73
2023/01/17 01:56:14;;;;;;;3.17;1.30;;;;;;;4.62;58.25;96438.88;5237296;28;20166;-73
2023/01/17 01:59:08;;;;;;;3.05;1.13;;;;;;;4.90;58.01;96452.41;5240254;28;20052;-72
2023/01/17 02:01:58;;;;;;;4.50;1.20;;;;;;;4.89;58.58;96436.81;5236528;28;20055;-72
2023/01/17 02:04:50;;;;;;;6.07;1.55;;;;;;;4.91;57.87;96442.72;5238389;28;20055;-73
2023/01/17 02:07:46;;;;;;;2.05;1.20;;;;;;;5.01;57.53;96443.34;5242127;28;20055;-75
2023/01/17 02:10:38;;;;;;;4.47;1.20;;;;;;;5.24;56.56;96448.66;5239540;28;20539;-73
2023/01/17 02:13:30;;;;;;;4.55;1.05;;;;;;;5.26;56.77;96445.81;5240745;28;20058;-73
2023/01/17 02:16:50;;;;;;;2.35;1.30;;;;;;;5.24;56.45;96446.00;5243538;28;20044;-72
2023/01/17 02:20:02;;;;;;;3.85;1.35;;;;;;;5.24;57.03;96442.56;5243410;28;20772;-72
2023/01/17 02:23:18;;;;;;;2.80;1.40;;;;;;;5.14;56.85;96416.53;5236677;28;20076;-72
2023/01/17 02:26:43;;;;;;;2.60;1.10;;;;;;;5.17;56.72;96435.38;5241441;28;20052;-74
2023/01/17 02:30:19;;;;;;;2.63;1.15;;;;;;;4.94;57.67;96448.47;5243293;28;20051;-72
2023/01/17 02:33:30;;;;;;;1.88;1.00;;;;;;;4.87;57.62;96442.25;5244419;28;20055;-72
2023/01/17 02:36:30;;;;;;;2.90;1.48;;;;;;;5.07;56.82;96445.28;5245056;28;20083;-72
2023/01/17 02:39:26;;;;;;;5.60;1.40;;;;;;;5.01;56.67;96435.47;5242203;28;20414;-72
2023/01/17 02:42:19;;;;;;;4.18;1.50;;;;;;;5.13;57.46;96447.22;5242616;28;20049;-74
2023/01/17 02:45:16;;;;;;;4.75;1.67;;;;;;;5.10;57.03;96444.09;5244280;28;20063;-73
2023/01/17 02:48:09;;;;;;;5.60;1.48;;;;;;;5.10;56.88;96437.06;5246953;28;20047;-73
2023/01/17 02:51:18;;;;;;;2.27;1.10;;;;;;;5.16;56.54;96428.47;5246141;28;20079;-73
2023/01/17 02:54:27;;;;;;;6.03;1.48;;;;;;;5.22;56.69;96437.47;5245567;28;20422;-72
2023/01/17 02:57:29;;;;;;;2.90;1.38;;;;;;;5.16;56.52;96435.53;5229073;28;20066;-73
2023/01/17 03:00:26;;;;;;;2.72;1.30;;;;;;;5.25;56.70;96431.06;5243925;28;20521;-74
2023/01/17 03:03:29;;;;;;;5.80;1.40;;;;;;;5.22;56.61;96423.53;5245403;28;20711;-73
2023/01/17 03:06:21;;;;;;;5.32;1.27;;;;;;;5.21;56.96;96437.66;5244861;28;20463;-74
2023/01/17 03:09:14;;;;;;;2.20;1.20;;;;;;;4.99;57.73;96424.31;5244347;28;20186;-73
2023/01/17 03:12:05;;;;;;;1.95;1.27;;;;;;;5.06;57.42;96433.13;5243409;28;20127;-72
2023/01/17 03:14:55;;;;;;;3.30;1.17;;;;;;;5.10;57.54;96420.47;5242122;28;20639;-73
2023/01/17 03:17:49;;;;;;;2.42;1.40;;;;;;;5.03;57.86;96420.34;5243136;28;20055;-74
2023/01/17 03:20:40;;;;;;;2.70;1.58;;;;;;;5.23;58.10;96426.00;5242339;28;20453;-73
2023/01/17 03:23:30;;;;;;;4.50;1.50;;;;;;;5.16;57.32;96423.22;5239445;28;20060;-72
2023/01/17 03:26:20;;;;;;;2.83;1.40;;;;;;;5.03;57.60;96430.84;5240913;28;20056;-72
2023/01/17 03:29:10;;;;;;;1.38;1.15;;;;;;;5.14;58.29;96440.16;5246117;28;20063;-73
2023/01/17 03:32:00;;;;;;;4.30;1.50;;;;;;;5.14;57.62;96442.78;5242705;28;20052;-74
2023/01/17 03:34:50;;;;;;;3.45;1.55;;;;;;;5.16;58.21;96431.09;5236057;28;20118;-73
2023/01/17 03:37:40;;;;;;;5.40;1.60;;;;;;;5.17;58.59;96443.25;5236606;28;20071;-73
2023/01/17 03:40:30;;;;;;;3.80;1.30;;;;;;;5.41;57.26;96441.47;5238156;28;20051;-74
2023/01/17 03:43:20;;;;;;;5.75;1.95;;;;;;;5.28;58.57;96451.75;5239925;28;20045;-73
2023/01/17 03:46:20;;;;;;;4.03;1.13;;;;;;;5.09;59.14;96448.53;5235607;28;20127;-72
2023/01/17 03:49:10;;;;;;;3.38;1.10;;;;;;;5.31;57.85;96454.03;5236921;28;20040;-72
2023/01/17 03:52:00;;;;;;;3.25;1.20;;;;;;;5.31;57.63;96449.59;5239347;28;20056;-73
2023/01/17 03:54:50;;;;;;;2.20;1.10;;;;;;;5.21;58.15;96464.75;5237243;28;20051;-74
2023/01/17 03:57:40;;;;;;;1.88;1.02;;;;;;;5.34;58.00;96464.19;5241316;28;20609;-74
2023/01/17 04:00:30;;;;;;;3.47;1.08;;;;;;;5.10;59.15;96449.34;5241031;28;20044;-73
2023/01/17 04:03:21;;;;;;;7.00;1.17;;;;;;;4.40;61.67;96456.19;5240726;28;20055;-73
2023/01/17 04:06:11;;;;;;;3.15;1.20;;;;;;;4.40;62.39;96444.84;5242856;28;20113;-73
2023/01/17 04:09:01;;;;;;;2.40;1.35;;;;;;;5.23;60.45;96451.44;5239393;28;20576;-74
2023/01/17 04:11:52;;;;;;;2.10;1.25;;;;;;;4.83;62.19;96446.19;5241745;28;20202;-75
2023/01/17 04:14:41;;;;;;;4.72;1.33;;;;;;;4.52;62.95;96454.00;5240194;28;20075;-73
2023/01/17 04:17:31;;;;;;;2.20;1.20;;;;;;;4.67;62.62;96451.53;5236752;28;20055;-74
2023/01/17 04:20:35;;;;;;;4.53;1.23;;;;;;;4.91;61.90;96450.59;5241036;28;20415;-71
2023/01/17 04:23:25;;;;;;;2.63;1.27;;;;;;;4.67;62.99;96436.59;5240147;28;20057;-72
2023/01/17 04:26:16;;;;;;;3.03;1.33;;;;;;;4.53;63.28;96449.56;5238969;28;20048;-72
2023/01/17 04:29:06;;;;;;;3.28;1.40;;;;;;;4.47;63.08;96451.91;5242232;28;20056;-72
2023/01/17 04:31:56;;;;;;;2.50;1.45;;;;;;;4.75;61.94;96453.28;5243135;28;20502;-72
2023/01/17 04:34:46;;;;;;;3.05;1.67;;;;;;;4.69;61.87;96455.59;5234929;28;20671;-72
2023/01/17 04:37:36;;;;;;;3.15;1.52;;;;;;;4.52;62.56;96454.00;5239879;28;20437;-71
2023/01/17 04:40:27;;;;;;;2.95;1.42;;;;;;;4.79;61.61;96455.41;5239325;28;20110;-72
2023/01/17 04:43:17;;;;;;;1.75;1.40;;;;;;;4.69;61.20;96460.84;5241744;28;20068;-72
2023/01/17 04:46:09;;;;;;;2.05;1.42;;;;;;;4.52;61.26;96454.00;5237736;28;20075;-72
2023/01/17 04:49:00;;;;;;;2.05;1.50;;;;;;;4.47;62.00;96466.84;5235883;28;20140;-72
2023/01/17 04:51:50;;;;;;;4.10;1.55;;;;;;;4.48;62.05;96476.34;5238135;28;20131;-73
2023/01/17 04:54:40;;;;;;;1.50;1.20;;;;;;;4.61;62.22;96481.06;5236795;28;20515;-72
2023/01/17 04:57:31;;;;;;;3.00;1.63;;;;;;;4.54;61.12;96449.44;5241286;28;20618;-72
2023/01/17 05:00:21;;;;;;;2.75;1.60;;;;;;;4.64;62.15;96488.59;5242733;28;20051;-73
2023/01/17 05:03:13;;;;;;;2.83;1.55;;;;;;;4.64;61.74;96484.16;5239966;28;20141;-72
2023/01/17 05:06:03;;;;;;;3.10;1.30;;;;;;;4.56;61.36;96484.19;5238631;28;20074;-73
2023/01/17 05:08:53;;;;;;;2.55;1.55;;;;;;;4.60;60.90;96475.00;5243940;28;20137;-71
2023/01/17 05:11:43;;;;;;;3.60;1.10;;;;;;;4.51;59.46;96478.63;5239595;28;20106;-70
2023/01/17 05:14:33;;;;;;;2.53;1.10;;;;;;;4.42;59.20;96474.38;5239940;28;20541;-71
2023/01/17 05:17:23;;;;;;;3.65;0.93;;;;;;;4.30;59.22;96458.16;5239940;28;20049;-74
2023/01/17 05:20:13;;;;;;;1.95;1.30;;;;;;;4.09;59.40;96461.28;5239548;28;20055;-71
2023/01/17 05:23:03;;;;;;;1.30;0.88;;;;;;;3.89;59.76;96452.13;5239118;28;20174;-73
2023/01/17 05:25:54;;;;;;;2.88;1.02;;;;;;;3.97;59.22;96446.88;5239921;28;20055;-72
2023/01/17 05:28:44;;;;;;;3.38;1.00;;;;;;;3.88;59.07;96448.69;5242487;28;20047;-74
2023/01/17 05:31:35;;;;;;;1.58;1.00;;;;;;;4.12;57.87;96453.09;5241962;28;20717;-73
2023/01/17 05:34:25;;;;;;;2.33;0.90;;;;;;;3.93;58.91;96463.94;5238732;28;20068;-75
2023/01/17 05:37:16;;;;;;;4.75;1.25;;;;;;;4.08;57.47;96456.22;5240965;28;20044;-74
2023/01/17 05:40:08;;;;;;;2.15;0.98;;;;;;;3.39;60.41;96469.63;5245292;28;20414;-76
2023/01/17 05:43:00;;;;;;;4.63;1.20;;;;;;;3.39;60.97;96464.38;5231185;28;20185;-73
2023/01/17 05:45:50;;;;;;;1.65;1.10;;;;;;;3.39;60.97;96455.72;5241681;28;20120;-74
2023/01/17 05:48:40;;;;;;;3.88;1.50;;;;;;;3.17;62.09;96452.69;5241623;28;20041;-73
2023/01/17 05:51:30;;;;;;;3.28;1.30;;;;;;;3.03;63.10;96454.13;5237100;28;20071;-71
2023/01/17 05:54:21;;;;;;;2.60;1.30;;;;;;;3.02;63.43;96462.97;5239246;28;20052;-74
2023/01/17 05:57:12;;;;;;;3.25;1.73;;;;;;;2.90;65.15;96450.34;5235903;28;20048;-73
2023/01/17 06:00:02;;;;;;;6.03;1.98;;;;;;;2.85;65.06;96431.66;5239826;28;20131;-72
2023/01/17 06:02:55;;;;;;;2.58;1.50;;;;;;;2.77;66.01;96456.81;5240565;28;20067;-73
2023/01/17 06:05:46;;;;;;;3.83;1.75;;;;;;;2.93;65.79;96442.16;5248467;28;20048;-72
2023/01/17 06:08:36;;;;;;;5.15;2.30;;;;;;;2.76;65.85;96436.88;5237892;28;20103;-72
2023/01/17 06:11:26;;;;;;;2.88;1.50;;;;;;;3.07;64.49;96441.53;5241018;28;20569;-72
2023/01/17 06:14:16;;;;;;;4.18;1.48;;;;;;;3.14;64.33;96439.91;5237829;28;20067;-71
2023/01/17 06:17:06;;;;;;;3.38;1.38;;;;;;;3.20;63.83;96436.66;5240947;28;20059;-72
2023/01/17 06:19:56;;;;;;;3.53;1.20;;;;;;;3.25;63.68;96434.41;5236983;28;21284;-73
2023/01/17 06:22:46;;;;;;;4.47;1.48;;;;;;;3.42;61.76;96423.94;5242752;28;20102;-73
2023/01/17 06:25:37;;;;;;;2.40;1.40;;;;;;;3.16;63.25;96414.41;5239314;28;20063;-72
2023/01/17 06:28:27;;;;;;;2.15;1.20;;;;;;;3.18;62.80;96415.09;5239018;28;20052;-71
2023/01/17 06:31:18;;;;;;;4.40;1.30;;;;;;;2.98;63.16;96398.00;5245060;28;20052;-71
2023/01/17 06:34:08;;;;;;;3.40;1.70;;;;;;;2.64;64.70;96403.28;5240297;28;20048;-71
2023/01/17 06:36:58;;;;;;;6.70;2.10;;;;;;;2.66;64.36;96402.16;5243152;28;20094;-72
2023/01/17 06:39:48;;;;;;;4.03;1.63;;;;;;;2.59;64.52;96373.19;5240276;28;20091;-71
2023/01/17 06:42:39;;;;;;;3.35;1.67;;;;;;;2.33;65.34;96409.88;5226607;28;20142;-70
2023/01/17 06:45:30;;;;;;;3.60;1.67;;;;;;;2.51;65.04;96408.97;5225038;28;20045;-70
2023/01/17 06:48:20;;;;;;;5.28;1.27;;;;;;;2.62;64.31;96406.09;5225316;28;20052;-71
2023/01/17 06:51:10;;;;;;;4.25;1.67;;;;;;;2.34;65.40;96403.66;5239548;28;20040;-70
2023/01/17 06:54:00;;;;;;;5.35;1.52;;;;;;;2.72;63.93;96417.25;5236100;28;20114;-70
2023/01/17 06:56:50;;;;;;;5.47;2.20;;;;;;;2.91;62.55;96408.28;5238530;28;20050;-71
2023/01/17 06:59:40;;;;;;;6.82;2.22;;;;;;;2.96;63.15;96411.25;5239988;28;20065;-72
2023/01/17 07:02:29;;;;;;;4.20;1.27;;;;;;;3.11;62.60;96418.47;5234391;28;20114;-70
2023/01/17 07:05:20;;;;;;;4.47;1.67;;;;;;;2.83;61.81;96397.81;5239313;28;20193;-71
2023/01/17 07:08:10;;;;;;;4.85;1.70;;;;;;;2.74;61.86;96410.03;5238103;28;20051;-72
2023/01/17 07:11:06;;;;;;;7.88;1.85;;;;;;;2.81;62.81;96411.06;5235599;28;20102;-72
2023/01/17 07:13:56;;;;;;;4.28;1.70;;;;;;;2.81;62.15;96394.53;5241011;28;20056;-71
2023/01/17 07:16:48;;;;;;;3.33;1.65;;;;;;;2.87;62.83;96406.16;5239259;28;20219;-71
2023/01/17 07:19:39;;;;;;;4.00;2.20;;;;;;;2.96;63.14;96405.22;5237371;28;20056;-70
2023/01/17 07:22:29;;;;;;;4.68;1.95;;;;;;;2.99;63.62;96410.13;5235597;28;20517;-70
2023/01/17 07:25:19;;;;;;;8.32;1.98;;;;;;;2.97;64.51;96399.78;5237350;28;20079;-71
2023/01/17 07:28:09;;;;;;;6.88;2.40;;;;;;;3.10;64.17;96382.81;5241262;28;20051;-71
2023/01/17 07:31:09;;;;;;;5.65;2.33;;;;;;;3.10;63.24;96403.75;5237091;28;20133;-71
2023/01/17 07:34:00;;;;;;;4.57;2.33;;;;;;;3.01;63.87;96400.28;5245786;28;20059;-70
2023/01/17 07:36:50;;;;;;;5.78;2.63;;;;;;;2.97;63.59;96401.59;5242959;28;20157;-70
2023/01/17 07:39:40;;;;;;;4.95;2.10;;;;;;;2.96;63.74;96402.59;5242969;28;20097;-70
2023/01/17 07:42:30;;;;;;;6.30;2.45;;;;;;;3.05;63.37;96397.22;5241805;28;20048;-70
2023/01/17 07:45:20;;;;;;;4.72;2.20;;;;;;;2.95;63.03;96382.63;5244336;28;20056;-71
2023/01/17 07:48:11;;;;;;;7.30;2.70;;;;;;;3.06;63.60;96391.00;5244582;28;20048;-71
2023/01/17 07:51:01;;;;;;;8.68;2.88;;;;;;;3.08;63.09;96393.47;5244294;28;20049;-71
2023/01/17 07:53:51;;;;;;;7.32;2.50;;;;;;;3.07;63.07;96386.56;5238793;28;20145;-70
2023/01/17 07:56:45;;;;;;;7.90;3.17;;;;;;;3.13;63.51;96377.25;5241232;28;20052;-70
2023/01/17 07:59:35;;;;;;;5.28;2.03;;;;;;;3.22;63.71;96377.13;5242618;28;20056;-70
2023/01/17 08:02:26;;;;;;;8.18;2.10;;;;;;;3.04;63.66;96379.84;5244291;28;20091;-70
2023/01/17 08:05:16;;;;;;;8.68;3.22;;;;;;;3.04;63.73;96369.38;5248575;28;20045;-70
2023/01/17 08:08:06;;;;;;;14.95;3.28;;;;;;;3.11;63.56;96358.25;5240687;28;20062;-69
2023/01/17 08:10:56;;;;;;;14.25;3.30;;;;;;;3.06;63.06;96371.84;5243033;28;20149;-69
2023/01/17 08:13:47;;;;;;;6.65;3.67;;;;;;;2.94;63.92;96379.19;5242366;28;20189;-69
2023/01/17 08:16:38;;;;;;;10.35;4.43;;;;;;;2.94;64.01;96380.97;5240208;28;20045;-69
2023/01/17 08:19:28;;;;;;;8.77;4.10;;;;;;;2.92;64.30;96382.97;5245142;28;20052;-70
2023/01/17 08:22:19;;;;;;;11.38;4.45;;;;;;;2.95;64.15;96382.63;5234935;28;20047;-69
2023/01/17 08:25:09;;;;;;;9.88;3.70;;;;;;;2.94;64.44;96389.66;5240082;28;20410;-69
2023/01/17 08:27:59;;;;;;;8.30;3.85;;;;;;;2.58;65.88;96374.19;5240361;28;20102;-70
2023/01/17 08:30:49;;;;;;;8.63;4.05;;;;;;;2.79;65.48;96354.63;5239643;28;20045;-69
2023/01/17 08:33:40;;;;;;;7.70;3.92;;;;;;;3.13;65.07;96372.84;5241459;28;20045;-70
2023/01/17 08:36:30;;;;;;;10.82;4.50;;;;;;;3.27;65.30;96380.03;5241671;28;20114;-70
2023/01/17 08:39:20;;;;;;;10.35;4.03;;;;;;;3.60;64.47;96390.53;5242304;28;20048;-70
2023/01/17 08:42:10;;;;;;;10.98;4.60;;;;;;;3.72;64.10;96378.75;5238350;28;20186;-70
2023/01/17 08:45:00;;;;;;;6.55;3.67;;;;;;;3.95;62.94;96380.69;5239816;28;20071;-70
2023/01/17 08:47:51;;;;;;;8.88;3.88;;;;;;;4.07;62.42;96387.22;5242368;28;20134;-70
2023/01/17 08:50:41;;;;;;;9.90;4.45;;;;;;;4.08;62.70;96373.13;5239458;28;20490;-70
2023/01/17 08:53:32;;;;;;;10.75;3.95;;;;;;;4.14;62.10;96382.13;5237788;28;20056;-69
2023/01/17 08:56:22;;;;;;;10.10;3.45;;;;;;;4.36;60.61;96385.84;5240521;28;20051;-71
2023/01/17 08:59:12;;;;;;;6.82;3.35;;;;;;;4.48;60.89;96374.81;5239376;28;20052;-70
2023/01/17 09:02:13;;;;;;;9.23;4.03;;;;;;;4.80;59.92;96365.19;5241236;28;20423;-70
2023/01/17 09:05:04;;;;;;;12.30;3.97;;;;;;;4.88;58.97;96366.94;5235647;28;20049;-71
2023/01/17 09:07:55;;;;;;;9.13;3.40;;;;;;;5.17;57.87;96368.91;5239505;28;20560;-71
2023/01/17 09:10:45;;;;;;;7.65;3.47;;;;;;;5.59;57.57;96373.66;5242811;28;20306;-71
2023/01/17 09:13:35;;;;;;;8.63;3.38;;;;;;;6.44;55.87;96377.81;5241956;28;20186;-70
2023/01/17 09:16:27;;;;;;;13.63;3.85;;;;;;;7.18;53.38;96343.44;5235360;28;20109;-71
2023/01/17 09:19:17;;;;;;;6.68;3.10;;;;;;;7.20;52.11;96366.97;5238612;28;20051;-71
2023/01/17 09:22:08;;;;;;;8.82;2.70;;;;;;;6.30;53.80;96366.28;5241760;28;20094;-72
2023/01/17 09:24:58;;;;;;;8.48;2.65;;;;;;;6.71;52.79;96365.00;5242312;28;20078;-72
2023/01/17 09:27:49;;;;;;;6.10;2.10;;;;;;;6.51;53.09;96370.81;5240476;28;20048;-71
2023/01/17 09:30:39;;;;;;;7.82;2.50;;;;;;;6.28;53.59;96357.75;5242262;28;20078;-71
2023/01/17 09:33:29;;;;;;;7.85;2.30;;;;;;;6.27;54.18;96369.28;5242200;28;20060;-71
2023/01/17 09:36:20;;;;;;;6.35;2.70;;;;;;;6.11;54.72;96366.81;5237678;28;20056;-70
2023/01/17 09:39:13;;;;;;;5.38;2.40;;;;;;;5.97;54.06;96357.91;5239522;28;20052;-69
2023/01/17 09:42:19;;;;;;;7.25;2.80;;;;;;;5.62;53.86;96343.56;5242929;28;20533;-70
2023/01/17 09:45:16;;;;;;;7.25;2.20;;;;;;;5.59;53.88;96344.75;5245843;28;20051;-71
2023/01/17 09:48:13;;;;;;;7.32;2.08;;;;;;;5.76;53.41;96349.84;5240257;28;20046;-71
2023/01/17 09:51:12;;;;;;;5.55;2.50;;;;;;;5.85;52.67;96352.22;5233088;28;20051;-70
2023/01/17 09:54:03;;;;;;;10.38;2.45;;;;;;;5.68;53.46;96339.44;5236468;28;20059;-70
2023/01/17 09:57:13;;;;;;;6.65;2.38;;;;;;;5.62;53.80;96346.22;5239105;28;20202;-72
2023/01/17 10:00:33;;;;;;;5.95;2.00;;;;;;;5.52;52.21;96341.19;5235559;28;20055;-71
2023/01/17 10:04:14;;;;;;;6.50;2.50;;;;;;;5.35;52.29;96350.22;5238602;28;20059;-72
2023/01/17 10:07:37;;;;;;;6.63;2.10;;;;;;;5.33;52.91;96337.25;5234262;28;20059;-70
2023/01/17 10:10:40;;;;;;;9.23;2.20;;;;;;;5.43;52.51;96350.16;5235669;28;20055;-70
2023/01/17 10:13:51;;;;;;;6.72;1.98;;;;;;;5.47;52.65;96343.56;5242548;28;20129;-72
2023/01/17 10:16:54;;;;;;;7.13;2.35;;;;;;;5.53;51.53;96340.22;5239398;28;20454;-71
2023/01/17 10:20:24;;;;;;;5.80;1.80;;;;;;;5.51;51.12;96323.00;5245633;28;20055;-71
2023/01/17 10:23:29;;;;;;;8.60;2.05;;;;;;;5.43;51.85;96329.13;5237318;28;20052;-71
2023/01/17 10:26:23;;;;;;;11.27;2.10;;;;;;;5.19;51.97;96320.44;5242290;28;20052;-72
2023/01/17 10:29:17;;;;;;;4.28;1.95;;;;;;;5.49;52.03;96317.88;5241528;28;20063;-70
2023/01/17 10:32:12;;;;;;;6.55;1.60;;;;;;;5.35;50.76;96306.34;5221855;28;20036;-72
2023/01/17 10:35:13;;;;;;;3.75;1.73;;;;;;;5.74;50.64;96309.81;5218864;28;20430;-72
2023/01/17 10:38:10;;;;;;;4.18;1.60;;;;;;;5.68;51.25;96300.00;5220062;28;20060;-71
2023/01/17 10:41:16;;;;;;;8.23;1.80;;;;;;;6.14;50.06;96299.88;5219779;28;20048;-71
2023/01/17 10:44:33;;;;;;;5.30;1.40;;;;;;;5.96;50.88;96292.34;5219116;28;20044;-70
2023/01/17 10:47:26;;;;;;;5.50;1.95;;;;;;;6.07;52.25;96292.72;5226557;28;20052;-70
2023/01/17 10:50:17;;;;;;;4.75;1.50;;;;;;;6.05;50.28;96294.69;5239804;28;20242;-70
2023/01/17 10:53:25;;;;;;;12.57;1.48;;;;;;;6.16;50.07;96290.81;5241096;28;20080;-70
2023/01/17 10:56:17;;;;;;;3.78;1.30;;;;;;;6.28;49.03;96286.69;5237651;28;20059;-70
2023/01/17 10:59:29;;;;;;;3.58;1.60;;;;;;;6.32;50.17;96284.50;5229210;28;20101;-71
2023/01/17 11:02:23;;;;;;;6.38;1.55;;;;;;;6.41;50.20;96283.41;5232680;28;20051;-71
2023/01/17 11:05:23;;;;;;;12.98;1.58;;;;;;;6.46;49.68;96281.06;5235923;28;20080;-70
2023/01/17 11:08:14;;;;;;;3.03;1.33;;;;;;;6.16;50.72;96276.81;5237907;28;20056;-70
2023/01/17 11:11:04;;;;;;;4.75;1.40;;;;;;;6.33;49.36;96276.44;5231407;28;20051;-70
2023/01/17 11:13:58;;;;;;;5.85;1.45;;;;;;;6.49;48.45;96270.16;5231432;28;20052;-70
2023/01/17 11:17:03;;;;;;;5.35;0.80;;;;;;;6.65;46.72;96273.56;5230105;28;20113;-69
2023/01/17 11:20:05;;;;;;;4.53;1.10;;;;;;;5.84;45.36;96260.38;5226653;28;20151;-69
2023/01/17 11:23:05;;;;;;;2.75;0.70;;;;;;;6.13;44.82;96258.78;5232226;28;20048;-69
2023/01/17 11:25:58;;;;;;;3.13;0.73;;;;;;;6.35;45.73;96263.91;5254862;28;20445;-68
2023/01/17 11:28:50;;;;;;;1.48;1.00;;;;;;;6.50;44.01;96257.81;5235726;28;20545;-69
2023/01/17 11:31:40;;;;;;;3.00;1.20;;;;;;;6.80;46.78;96255.91;5254257;28;20447;-69
2023/01/17 11:34:31;;;;;;;3.80;1.20;;;;;;;6.58;46.45;96255.06;5252959;28;20542;-70
2023/01/17 11:37:25;;;;;;;4.57;1.08;;;;;;;6.69;45.46;96228.25;5237431;28;20334;-70
2023/01/17 11:40:26;;;;;;;3.15;1.00;;;;;;;6.76;44.50;96225.69;5247974;28;20101;-69
2023/01/17 11:43:26;;;;;;;1.10;0.80;;;;;;;6.81;44.42;96204.88;5256122;28;20047;-69
2023/01/17 11:46:17;;;;;;;7.03;1.05;;;;;;;6.12;45.16;96210.59;5249244;28;20600;-70
2023/01/17 11:49:21;;;;;;;3.50;0.57;;;;;;;6.68;44.63;96216.09;5238324;28;20079;-70
2023/01/17 11:52:23;;;;;;;1.63;0.77;;;;;;;7.11;43.26;96208.16;5252113;28;20402;-71
2023/01/17 11:55:14;;;;;;;4.38;0.98;;;;;;;7.03;44.63;96209.13;5249461;28;20794;-69
2023/01/17 11:58:04;;;;;;;2.42;0.77;;;;;;;6.96;42.83;96221.44;5227418;28;20053;-70
2023/01/17 12:01:04;;;;;;;1.73;0.70;;;;;;;7.19;43.66;96210.69;5235423;28;20075;-71
2023/01/17 12:04:07;;;;;;;2.85;1.00;;;;;;;6.68;41.23;96202.09;5246659;28;20125;-70
2023/01/17 12:07:25;;;;;;;0.88;0.63;;;;;;;6.57;42.39;96193.69;5232125;28;20067;-71
2023/01/17 12:10:24;;;;;;;2.20;0.50;;;;;;;6.96;42.75;96179.28;5233258;28;20178;-71
2023/01/17 12:14:00;;;;;;;1.35;0.57;;;;;;;6.89;43.70;96132.78;5226468;28;20057;-71
2023/01/17 12:17:10;;;;;;;3.28;0.70;;;;;;;6.89;43.72;96175.78;5226165;28;20061;-70
2023/01/17 12:20:05;;;;;;;2.13;0.50;;;;;;;6.94;42.45;96149.66;5237263;28;20214;-70
2023/01/17 12:23:23;;;;;;;1.45;0.70;;;;;;;6.99;42.65;96157.81;5240126;28;20063;-71
2023/01/17 12:26:36;;;;;;;3.45;0.85;;;;;;;6.70;42.32;96150.09;5234220;28;20462;-70
2023/01/17 12:29:48;;;;;;;0.93;0.50;;;;;;;7.02;42.95;96141.66;5222667;28;20062;-71
2023/01/17 12:32:57;;;;;;;2.47;0.40;;;;;;;7.04;44.13;96142.25;5223806;28;20059;-70
2023/01/17 12:35:55;;;;;;;0.63;0.25;;;;;;;6.97;41.77;96130.03;5227965;28;20533;-70
2023/01/17 12:38:46;;;;;;;2.50;0.40;;;;;;;7.10;42.51;96137.22;5234412;28;20543;-70
2023/01/17 12:42:06;;;;;;;2.08;0.40;;;;;;;7.09;42.02;96125.06;5229023;28;20307;-70
2023/01/17 12:45:05;;;;;;;2.53;0.60;;;;;;;7.11;43.15;96120.41;5232393;28;20048;-71
2023/01/17 12:48:01;;;;;;;2.55;0.47;;;;;;;7.04;43.04;96121.16;5236278;28;20060;-71
2023/01/17 12:50:56;;;;;;;1.10;0.50;;;;;;;7.08;43.42;96105.78;5230581;28;20059;-71
2023/01/17 12:54:11;;;;;;;2.05;0.57;;;;;;;7.19;43.55;96110.53;5232518;28;20522;-69
2023/01/17 12:57:07;;;;;;;1.33;0.40;;;;;;;7.08;43.09;96108.44;5225807;28;20063;-71
2023/01/17 13:00:06;;;;;;;2.80;0.70;;;;;;;7.03;44.04;96098.47;5227573;28;20059;-71
2023/01/17 13:03:19;;;;;;;3.25;0.50;;;;;;;6.62;43.36;96090.44;5224133;28;20142;-71
2023/01/17 13:06:21;;;;;;;1.27;0.50;;;;;;;6.78;44.25;96092.00;5223033;28;20106;-70
2023/01/17 13:09:15;;;;;;;0.73;0.40;;;;;;;7.07;43.38;96083.09;5226061;28;20486;-71
2023/01/17 13:12:12;;;;;;;2.28;0.60;;;;;;;7.03;43.74;96085.31;5221791;28;20071;-70
2023/01/17 13:15:14;;;;;;;0.82;0.40;;;;;;;7.19;44.64;96081.56;5224110;28;20060;-70
2023/01/17 13:18:14;;;;;;;3.75;0.57;;;;;;;7.39;44.19;96075.59;5221622;28;20063;-70
2023/01/17 13:21:27;;;;;;;1.70;0.60;;;;;;;7.13;43.54;96073.63;5223356;28;20189;-71
2023/01/17 13:24:27;;;;;;;2.58;0.80;;;;;;;7.05;43.57;96070.13;5222596;28;20053;-70
2023/01/17 13:27:42;;;;;;;0.95;0.60;;;;;;;6.91;45.07;96073.66;5223091;28;20079;-70
2023/01/17 13:30:54;;;;;;;4.25;0.82;;;;;;;6.88;46.07;96073.22;5222690;28;20910;-69
2023/01/17 13:33:51;;;;;;;2.08;0.70;;;;;;;6.90;44.25;96058.06;5222076;28;20385;-70
2023/01/17 13:37:11;;;;;;;3.63;0.63;;;;;;;7.00;44.73;96061.97;5226374;28;20113;-70
2023/01/17 13:40:27;;;;;;;2.88;0.82;;;;;;;7.05;45.99;96064.84;5220721;28;20139;-70
2023/01/17 13:43:24;;;;;;;4.10;0.57;;;;;;;6.78;45.13;96044.59;5218406;28;20097;-70
2023/01/17 13:46:17;;;;;;;2.75;0.65;;;;;;;6.72;45.53;96056.75;5225162;28;20079;-69
2023/01/17 13:49:22;;;;;;;4.90;0.88;;;;;;;6.64;46.07;96062.13;5225777;28;20068;-71
2023/01/17 13:52:18;;;;;;;4.03;0.70;;;;;;;6.44;44.49;96025.13;5225283;28;20395;-70
2023/01/17 13:55:43;;;;;;;2.67;0.98;;;;;;;6.75;45.73;96053.69;5233278;28;20067;-70
2023/01/17 13:58:54;;;;;;;;;;;;;;;6.41;46.14;96056.28;5228686;28;20193;-70
2023/01/17 14:01:44;;;;;;;5.47;0.88;;;;;;;6.34;45.13;96057.03;5229633;28;19935;-70
2023/01/17 14:05:06;;;;;;;1.73;0.60;;;;;;;6.54;44.83;96066.91;5231492;28;20059;-69
2023/01/17 14:08:01;;;;;;;2.17;0.73;;;;;;;6.47;45.61;96064.22;5230416;28;20058;-70
2023/01/17 14:11:02;;;;;;;1.33;0.57;;;;;;;6.72;45.19;96069.91;5227568;28;20067;-71
2023/01/17 14:13:52;;;;;;;1.73;0.60;;;;;;;6.88;43.35;96074.03;5229255;28;20110;-72
2023/01/17 14:16:42;;;;;;;2.83;0.57;;;;;;;6.91;43.77;96070.22;5228416;28;20054;-69
2023/01/17 14:19:35;;;;;;;4.50;0.73;;;;;;;6.62;44.27;96064.13;5222551;28;20063;-69
2023/01/17 14:22:30;;;;;;;1.00;0.50;;;;;;;6.43;45.87;96060.34;5218415;28;20062;-70
2023/01/17 14:25:26;;;;;;;3.13;0.70;;;;;;;6.42;45.40;96071.06;5223737;28;20658;-69
2023/01/17 14:28:30;;;;;;;1.88;0.70;;;;;;;6.49;45.00;96085.91;5222433;28;20537;-70
2023/01/17 14:31:22;;;;;;;1.02;0.60;;;;;;;6.53;44.54;96078.44;5222330;28;20109;-69
2023/01/17 14:34:20;;;;;;;3.25;0.52;;;;;;;6.47;43.82;96087.91;5221767;28;20056;-69
2023/01/17 14:37:19;;;;;;;2.97;0.85;;;;;;;6.37;43.77;96081.34;5235917;28;20519;-69
2023/01/17 14:40:20;;;;;;;3.13;0.70;;;;;;;6.57;45.17;96063.91;5219131;28;20116;-71
2023/01/17 14:43:14;;;;;;;2.78;1.10;;;;;;;6.53;44.55;96076.63;5224780;28;20049;-70
2023/01/17 14:46:07;;;;;;;4.40;1.00;;;;;;;6.59;43.79;96078.50;5227791;28;20129;-70
2023/01/17 14:49:19;;;;;;;2.92;0.77;;;;;;;6.38;45.05;96060.09;5234963;28;20067;-70
2023/01/17 14:52:15;;;;;;;2.92;1.17;;;;;;;6.31;45.43;96072.38;5226965;28;20059;-70
2023/01/17 14:55:15;;;;;;;7.03;1.23;;;;;;;6.41;45.64;96075.50;5230547;28;20595;-69
2023/01/17 14:58:15;;;;;;;4.40;1.67;;;;;;;6.45;45.47;96060.94;5230069;28;20166;-70
2023/01/17 15:01:12;;;;;;;5.60;1.55;;;;;;;6.41;46.10;96057.06;5230996;28;20630;-70
2023/01/17 15:04:02;;;;;;;10.32;3.42;;;;;;;6.49;45.95;96062.22;5231288;28;20063;-70
2023/01/17 15:06:56;;;;;;;5.75;1.80;;;;;;;6.29;46.60;96062.06;5225650;28;20502;-70
2023/01/17 15:09:46;;;;;;;5.45;1.58;;;;;;;6.30;45.74;96068.13;5229039;28;20063;-70
2023/01/17 15:12:37;;;;;;;4.30;1.60;;;;;;;6.60;44.59;96060.88;5227827;28;20056;-70
2023/01/17 15:15:31;;;;;;;5.80;1.65;;;;;;;6.26;46.35;96056.34;5227327;28;20507;-69
2023/01/17 15:18:25;;;;;;;;;;;;;;;6.15;46.38;96067.38;5224370;28;20044;-69
2023/01/17 15:21:19;;;;;;;5.57;2.30;;;;;;;6.11;46.60;96056.41;5225709;28;20364;-70